createdAt,value
2017-06-30T00:00:29.239Z,16.40
2017-06-30T00:02:55.675Z,16.40
2017-06-30T00:05:22.111Z,16.40
2017-06-30T00:07:48.520Z,16.40
2017-06-30T00:10:15.703Z,16.50
2017-06-30T00:12:42.135Z,16.50
2017-06-30T00:15:08.536Z,16.60
2017-06-30T00:17:34.975Z,16.60
2017-06-30T00:20:01.379Z,16.60
2017-06-30T00:22:27.776Z,16.70
2017-06-30T00:24:54.168Z,16.70
2017-06-30T00:27:21.307Z,16.80
2017-06-30T00:29:47.747Z,16.70
2017-06-30T00:32:14.157Z,16.80
2017-06-30T00:34:40.520Z,16.80
2017-06-30T00:37:06.964Z,16.80
2017-06-30T00:39:33.384Z,16.80
2017-06-30T00:41:59.805Z,16.80
2017-06-30T00:44:36.351Z,16.70
2017-06-30T00:47:02.760Z,16.70
2017-06-30T00:49:29.200Z,16.60
2017-06-30T00:51:55.651Z,16.50
2017-06-30T00:54:22.068Z,16.50
2017-06-30T00:56:48.464Z,16.60
2017-06-30T00:59:14.874Z,16.60
2017-06-30T01:01:41.289Z,16.60
2017-06-30T01:04:07.695Z,16.60
2017-06-30T01:06:34.133Z,16.60
2017-06-30T01:09:00.513Z,16.60
2017-06-30T01:11:26.948Z,16.60
2017-06-30T01:13:53.384Z,16.60
2017-06-30T01:16:19.820Z,16.60
2017-06-30T01:18:46.263Z,16.60
2017-06-30T01:21:13.408Z,16.60
2017-06-30T01:23:39.881Z,16.60
2017-06-30T01:26:06.347Z,16.60
2017-06-30T01:28:33.503Z,16.70
2017-06-30T01:31:00.012Z,16.60
2017-06-30T01:33:26.440Z,16.70
2017-06-30T01:35:52.848Z,16.70
2017-06-30T01:38:19.236Z,16.60
2017-06-30T01:40:45.700Z,16.60
2017-06-30T01:43:12.128Z,16.50
2017-06-30T01:45:38.571Z,16.50
2017-06-30T01:48:05.755Z,16.50
2017-06-30T01:50:32.189Z,16.50
2017-06-30T01:52:58.595Z,16.50
2017-06-30T01:55:25.044Z,16.50
2017-06-30T01:57:51.515Z,16.50
2017-06-30T02:00:17.957Z,16.50
2017-06-30T02:02:44.380Z,16.50
2017-06-30T02:05:10.824Z,16.50
2017-06-30T02:07:37.215Z,16.50
2017-06-30T02:10:03.603Z,16.50
2017-06-30T02:12:30.051Z,16.50
2017-06-30T02:14:56.419Z,16.50
2017-06-30T02:17:22.847Z,16.40
2017-06-30T02:19:49.235Z,16.50
2017-06-30T02:22:15.667Z,16.50
2017-06-30T02:24:42.099Z,16.50
2017-06-30T02:27:08.531Z,16.50
2017-06-30T02:29:34.923Z,16.50
2017-06-30T02:32:01.344Z,16.40
2017-06-30T02:34:27.834Z,16.40
2017-06-30T02:36:54.250Z,16.40
2017-06-30T02:39:20.691Z,16.40
2017-06-30T02:41:47.845Z,16.40
2017-06-30T02:44:14.240Z,16.40
2017-06-30T02:46:40.702Z,16.40
2017-06-30T02:49:07.179Z,16.30
2017-06-30T02:51:33.575Z,16.40
2017-06-30T02:53:59.984Z,16.40
2017-06-30T02:56:26.444Z,16.40
2017-06-30T02:58:52.877Z,16.30
2017-06-30T03:01:19.327Z,16.30
2017-06-30T03:03:45.763Z,16.30
2017-06-30T03:06:12.172Z,16.30
2017-06-30T03:08:39.353Z,16.30
2017-06-30T03:11:05.747Z,16.30
2017-06-30T03:13:32.129Z,16.30
2017-06-30T03:15:58.580Z,16.30
2017-06-30T03:18:25.782Z,16.30
2017-06-30T03:20:52.195Z,16.30
2017-06-30T03:23:18.636Z,16.30
2017-06-30T03:25:45.055Z,16.30
2017-06-30T03:28:11.444Z,16.30
2017-06-30T03:30:38.285Z,16.20
2017-06-30T03:33:04.735Z,16.20
2017-06-30T03:35:31.191Z,16.30
2017-06-30T03:37:57.622Z,16.20
2017-06-30T03:40:24.043Z,16.20
2017-06-30T03:42:50.467Z,16.20
2017-06-30T03:45:17.633Z,16.10
2017-06-30T03:47:44.087Z,16.10
2017-06-30T03:50:10.488Z,16.10
2017-06-30T03:52:36.898Z,16.10
2017-06-30T03:55:03.299Z,16.20
2017-06-30T03:57:30.444Z,16.20
2017-06-30T04:00:00.011Z,16.20
2017-06-30T04:02:26.428Z,16.20
2017-06-30T04:04:53.847Z,16.20
2017-06-30T04:07:20.272Z,16.20
2017-06-30T04:09:46.686Z,16.20
2017-06-30T04:12:13.083Z,16.20
2017-06-30T04:14:39.527Z,16.20
2017-06-30T04:17:05.920Z,16.20
2017-06-30T04:19:32.287Z,16.20
2017-06-30T04:21:58.747Z,16.30
2017-06-30T04:24:25.148Z,16.30
2017-06-30T04:26:51.541Z,16.30
2017-06-30T04:29:17.948Z,16.30
2017-06-30T04:31:44.316Z,16.30
2017-06-30T04:34:10.756Z,16.30
2017-06-30T04:36:37.186Z,16.40
2017-06-30T04:39:03.635Z,16.40
2017-06-30T04:41:30.129Z,16.40
2017-06-30T04:43:56.548Z,16.50
2017-06-30T04:46:22.964Z,16.50
2017-06-30T04:48:49.360Z,16.50
2017-06-30T04:51:16.492Z,16.50
2017-06-30T04:53:42.913Z,16.50
2017-06-30T04:56:09.313Z,16.60
2017-06-30T04:58:35.776Z,16.60
2017-06-30T05:01:02.896Z,16.70
2017-06-30T05:03:29.279Z,16.70
2017-06-30T05:05:55.737Z,16.80
2017-06-30T05:08:22.135Z,16.80
2017-06-30T05:10:48.592Z,16.80
2017-06-30T05:13:15.063Z,16.90
2017-06-30T05:15:41.487Z,16.90
2017-06-30T05:18:08.263Z,16.90
2017-06-30T05:20:34.711Z,16.90
2017-06-30T05:23:01.156Z,16.90
2017-06-30T05:25:27.556Z,16.90
2017-06-30T05:27:54.020Z,16.90
2017-06-30T05:30:20.420Z,17.00
2017-06-30T05:32:47.576Z,16.90
2017-06-30T05:35:14.040Z,17.00
2017-06-30T05:37:40.438Z,17.00
2017-06-30T05:40:06.872Z,17.00
2017-06-30T05:42:33.368Z,17.10
2017-06-30T05:44:59.751Z,17.30
2017-06-30T05:47:26.123Z,17.40
2017-06-30T05:49:52.532Z,17.50
2017-06-30T05:52:18.903Z,17.50
2017-06-30T05:54:45.280Z,17.60
2017-06-30T05:57:11.681Z,17.80
2017-06-30T05:59:38.091Z,17.80
2017-06-30T06:02:04.483Z,17.80
2017-06-30T06:04:30.954Z,17.90
2017-06-30T06:06:58.167Z,17.80
2017-06-30T06:09:24.610Z,17.80
2017-06-30T06:11:52.153Z,17.80
2017-06-30T06:14:18.555Z,17.80
2017-06-30T06:16:44.951Z,17.60
2017-06-30T06:19:11.397Z,17.60
2017-06-30T06:21:37.812Z,17.60
2017-06-30T06:24:04.226Z,17.50
2017-06-30T06:26:30.694Z,17.50
2017-06-30T06:28:57.080Z,17.60
2017-06-30T06:31:23.508Z,17.60
2017-06-30T06:33:49.904Z,17.70
2017-06-30T06:36:16.299Z,17.70
2017-06-30T06:38:42.731Z,17.70
2017-06-30T06:41:09.140Z,17.70
2017-06-30T06:43:35.540Z,17.70
2017-06-30T06:46:02.164Z,17.70
2017-06-30T06:48:28.567Z,17.70
2017-06-30T06:50:54.976Z,17.70
2017-06-30T06:53:21.447Z,17.90
2017-06-30T06:55:47.872Z,18.00
2017-06-30T06:58:14.304Z,18.10
2017-06-30T07:00:40.688Z,18.20
2017-06-30T07:03:07.103Z,18.20
2017-06-30T07:05:33.541Z,18.40
2017-06-30T07:07:59.971Z,18.50
2017-06-30T07:10:26.389Z,18.60
2017-06-30T07:12:52.859Z,18.60
2017-06-30T07:15:20.004Z,18.60
2017-06-30T07:17:46.403Z,18.60
2017-06-30T07:20:12.792Z,18.60
2017-06-30T07:22:39.223Z,18.60
2017-06-30T07:25:05.647Z,18.60
2017-06-30T07:27:32.043Z,18.60
2017-06-30T07:29:58.440Z,18.60
2017-06-30T07:32:24.849Z,18.60
2017-06-30T07:34:51.252Z,18.60
2017-06-30T07:37:18.675Z,18.60
2017-06-30T07:39:45.079Z,18.60
2017-06-30T07:42:11.476Z,18.50
2017-06-30T07:44:38.703Z,18.50
2017-06-30T07:47:05.808Z,18.50
2017-06-30T07:49:32.207Z,18.50
2017-06-30T07:51:58.625Z,18.50
2017-06-30T07:54:25.052Z,18.60
2017-06-30T07:56:51.440Z,18.80
2017-06-30T07:59:17.893Z,19.00
2017-06-30T08:01:44.312Z,19.20
2017-06-30T08:04:10.716Z,19.40
2017-06-30T08:06:37.117Z,19.50
2017-06-30T08:09:03.584Z,19.60
2017-06-30T08:11:31.055Z,19.90
2017-06-30T08:13:57.531Z,20.00
2017-06-30T08:16:24.260Z,20.10
2017-06-30T08:18:50.664Z,20.20
2017-06-30T08:21:17.104Z,20.30
2017-06-30T08:23:43.504Z,20.40
2017-06-30T08:26:10.944Z,20.40
2017-06-30T08:28:37.381Z,20.40
2017-06-30T08:31:04.559Z,20.40
2017-06-30T08:33:32.087Z,20.40
2017-06-30T08:35:58.472Z,20.40
2017-06-30T08:38:25.632Z,20.70
2017-06-30T08:40:52.736Z,20.80
2017-06-30T08:43:19.925Z,20.60
2017-06-30T08:45:46.348Z,20.50
2017-06-30T08:48:12.760Z,20.40
2017-06-30T08:50:39.187Z,20.40
2017-06-30T08:53:05.595Z,20.00
2017-06-30T08:55:32.070Z,20.10
2017-06-30T08:57:59.251Z,19.90
2017-06-30T09:00:25.784Z,19.90
2017-06-30T09:02:52.228Z,19.90
2017-06-30T09:05:18.672Z,20.00
2017-06-30T09:07:45.169Z,20.20
2017-06-30T09:10:12.359Z,20.20
2017-06-30T09:12:38.778Z,20.20
2017-06-30T09:15:05.279Z,20.10
2017-06-30T09:17:31.702Z,20.10
2017-06-30T09:19:58.174Z,20.10
2017-06-30T09:22:24.605Z,20.30
2017-06-30T09:24:51.008Z,20.40
2017-06-30T09:27:17.403Z,20.60
2017-06-30T09:29:44.583Z,21.10
2017-06-30T09:32:11.728Z,21.10
2017-06-30T09:34:38.924Z,21.10
2017-06-30T09:37:06.807Z,21.20
2017-06-30T09:39:34.157Z,21.40
2017-06-30T09:42:00.635Z,21.40
2017-06-30T09:44:27.840Z,21.60
2017-06-30T09:46:54.314Z,21.60
2017-06-30T09:49:21.669Z,22.80
2017-06-30T09:51:49.136Z,22.80
2017-06-30T09:54:15.527Z,23.30
2017-06-30T09:56:42.010Z,23.50
2017-06-30T09:59:08.492Z,23.50
2017-06-30T10:01:34.876Z,23.40
2017-06-30T10:04:01.284Z,23.10
2017-06-30T10:06:27.716Z,23.10
2017-06-30T10:08:54.156Z,23.30
2017-06-30T10:11:20.659Z,23.30
2017-06-30T10:13:47.400Z,23.00
2017-06-30T10:16:13.884Z,22.70
2017-06-30T10:18:41.120Z,22.00
2017-06-30T10:21:07.744Z,21.90
2017-06-30T10:23:34.859Z,21.50
2017-06-30T10:26:02.013Z,21.40
2017-06-30T10:28:28.446Z,21.40
2017-06-30T10:30:54.821Z,21.30
2017-06-30T10:33:21.241Z,21.20
2017-06-30T10:35:47.764Z,21.10
2017-06-30T10:38:14.192Z,21.00
2017-06-30T10:40:40.772Z,21.10
2017-06-30T10:43:07.180Z,21.00
2017-06-30T10:45:33.790Z,21.20
2017-06-30T10:48:00.215Z,21.30
2017-06-30T10:50:26.668Z,21.70
2017-06-30T10:52:53.055Z,22.00
2017-06-30T10:55:19.476Z,22.10
2017-06-30T10:57:45.900Z,22.10
2017-06-30T11:00:12.301Z,22.50
2017-06-30T11:02:38.710Z,22.70
2017-06-30T11:05:05.144Z,22.50
2017-06-30T11:07:32.288Z,21.80
2017-06-30T11:09:58.740Z,21.80
2017-06-30T11:12:25.175Z,21.80
2017-06-30T11:14:51.625Z,21.70
2017-06-30T11:17:18.063Z,21.80
2017-06-30T11:19:44.483Z,22.10
2017-06-30T11:22:10.904Z,22.40
2017-06-30T11:24:37.331Z,22.70
2017-06-30T11:27:03.748Z,22.70
2017-06-30T11:29:30.148Z,22.10
2017-06-30T11:31:56.557Z,21.90
2017-06-30T11:34:22.955Z,21.80
2017-06-30T11:36:49.307Z,21.90
2017-06-30T11:39:15.752Z,22.20
2017-06-30T11:41:42.192Z,22.40
2017-06-30T11:44:08.612Z,22.70
2017-06-30T11:46:34.992Z,23.10
2017-06-30T11:49:01.608Z,23.30
2017-06-30T11:51:27.992Z,23.20
2017-06-30T11:53:54.447Z,23.20
2017-06-30T11:56:20.927Z,23.10
2017-06-30T11:58:47.379Z,23.10
2017-06-30T12:01:13.838Z,22.90
2017-06-30T12:03:40.275Z,22.70
2017-06-30T12:06:06.661Z,22.40
2017-06-30T12:08:33.139Z,22.20
2017-06-30T12:11:00.419Z,21.70
2017-06-30T12:13:27.643Z,21.70
2017-06-30T12:15:54.859Z,22.10
2017-06-30T12:18:22.088Z,22.40
2017-06-30T12:20:48.460Z,22.40
2017-06-30T12:23:14.959Z,22.70
2017-06-30T12:25:42.349Z,22.90
2017-06-30T12:28:08.768Z,23.00
2017-06-30T12:30:35.140Z,23.00
2017-06-30T12:33:01.522Z,23.10
2017-06-30T12:35:27.955Z,23.00
2017-06-30T12:37:54.484Z,22.90
2017-06-30T12:40:20.908Z,22.80
2017-06-30T12:42:47.335Z,22.90
2017-06-30T12:45:13.720Z,22.90
2017-06-30T12:47:40.826Z,23.00
2017-06-30T12:50:07.191Z,23.00
2017-06-30T12:52:34.407Z,23.00
2017-06-30T12:55:00.807Z,23.00
2017-06-30T12:57:28.207Z,22.80
2017-06-30T12:59:55.620Z,22.60
2017-06-30T13:02:22.124Z,22.60
2017-06-30T13:04:48.559Z,23.50
2017-06-30T13:07:15.009Z,24.30
2017-06-30T13:09:41.457Z,25.10
2017-06-30T13:12:08.572Z,27.10
2017-06-30T13:14:35.001Z,27.00
2017-06-30T13:17:01.357Z,27.60
2017-06-30T13:19:27.737Z,27.40
2017-06-30T13:21:54.117Z,28.70
2017-06-30T13:24:22.127Z,29.00
2017-06-30T13:26:48.472Z,28.90
2017-06-30T13:29:14.870Z,28.20
2017-06-30T13:31:41.517Z,28.60
2017-06-30T13:34:07.875Z,28.30
2017-06-30T13:36:34.286Z,28.40
2017-06-30T13:39:00.674Z,27.90
2017-06-30T13:41:27.161Z,28.30
2017-06-30T13:43:53.614Z,29.30
2017-06-30T13:46:20.036Z,30.70
2017-06-30T13:48:46.461Z,31.10
2017-06-30T13:51:12.861Z,31.00
2017-06-30T13:53:39.744Z,32.20
2017-06-30T13:56:06.204Z,33.50
2017-06-30T13:58:32.611Z,35.10
2017-06-30T14:00:58.972Z,36.70
2017-06-30T14:03:25.525Z,37.30
2017-06-30T14:05:52.099Z,37.10
2017-06-30T14:08:18.495Z,36.90
2017-06-30T14:10:44.916Z,36.50
2017-06-30T14:13:12.725Z,37.70
2017-06-30T14:15:39.173Z,38.10
2017-06-30T14:18:05.552Z,36.80
2017-06-30T14:20:31.975Z,35.00
2017-06-30T14:22:58.440Z,32.90
2017-06-30T14:25:25.255Z,30.90
2017-06-30T14:27:51.649Z,29.80
2017-06-30T14:30:18.068Z,29.90
2017-06-30T14:32:44.447Z,31.30
2017-06-30T14:35:12.584Z,34.50
2017-06-30T14:37:39.042Z,34.40
2017-06-30T14:40:06.185Z,37.70
2017-06-30T14:42:32.596Z,37.70
2017-06-30T14:44:58.976Z,39.60
2017-06-30T14:47:25.544Z,39.90
2017-06-30T14:49:52.036Z,39.90
2017-06-30T14:52:19.197Z,36.50
2017-06-30T14:54:45.592Z,36.40
2017-06-30T14:57:11.996Z,36.50
2017-06-30T14:59:38.441Z,36.50
2017-06-30T15:02:04.820Z,35.70
2017-06-30T15:04:31.224Z,34.30
2017-06-30T15:06:57.619Z,33.20
2017-06-30T15:09:24.243Z,31.90
2017-06-30T15:11:50.700Z,31.20
2017-06-30T15:14:17.133Z,30.50
2017-06-30T15:16:43.533Z,29.80
2017-06-30T15:19:09.948Z,29.30
2017-06-30T15:21:37.144Z,28.40
2017-06-30T15:24:03.628Z,28.40
2017-06-30T15:26:30.105Z,28.30
2017-06-30T15:28:57.228Z,28.80
2017-06-30T15:31:23.646Z,28.70
2017-06-30T15:33:50.054Z,28.40
2017-06-30T15:36:16.519Z,28.30
2017-06-30T15:38:42.970Z,27.90
2017-06-30T15:41:09.394Z,27.70
2017-06-30T15:43:35.821Z,27.60
2017-06-30T15:46:03.300Z,27.60
2017-06-30T15:48:29.672Z,27.40
2017-06-30T15:50:56.051Z,27.00
2017-06-30T15:53:23.136Z,26.80
2017-06-30T15:55:49.598Z,26.80
2017-06-30T15:58:16.079Z,26.60
2017-06-30T16:00:43.588Z,26.50
2017-06-30T16:03:10.065Z,26.40
2017-06-30T16:05:36.557Z,26.30
2017-06-30T16:08:02.992Z,26.20
2017-06-30T16:10:29.396Z,26.00
2017-06-30T16:12:55.807Z,25.90
2017-06-30T16:15:22.260Z,25.70
2017-06-30T16:17:48.652Z,25.40
2017-06-30T16:20:15.073Z,25.20
2017-06-30T16:22:41.483Z,25.00
2017-06-30T16:25:07.909Z,24.70
2017-06-30T16:27:34.375Z,24.50
2017-06-30T16:30:00.822Z,23.90
2017-06-30T16:32:27.372Z,23.40
2017-06-30T16:34:53.841Z,22.80
2017-06-30T16:37:20.316Z,22.60
2017-06-30T16:39:46.763Z,22.30
2017-06-30T16:42:13.174Z,22.00
2017-06-30T16:44:40.301Z,21.90
2017-06-30T16:47:06.700Z,21.80
2017-06-30T16:49:33.143Z,21.90
2017-06-30T16:52:00.276Z,22.00
2017-06-30T16:54:26.704Z,22.00
2017-06-30T16:56:53.131Z,22.00
2017-06-30T16:59:20.623Z,22.10
2017-06-30T17:01:47.101Z,22.20
2017-06-30T17:04:13.560Z,22.30
2017-06-30T17:06:40.063Z,22.40
2017-06-30T17:09:06.680Z,22.40
2017-06-30T17:11:33.099Z,22.30
2017-06-30T17:13:59.511Z,22.20
2017-06-30T17:16:26.239Z,22.10
2017-06-30T17:18:52.641Z,22.10
2017-06-30T17:21:19.061Z,22.10
2017-06-30T17:23:45.481Z,22.10
2017-06-30T17:26:11.916Z,22.10
2017-06-30T17:28:38.329Z,22.10
2017-06-30T17:31:04.792Z,22.10
2017-06-30T17:33:32.325Z,22.10
2017-06-30T17:35:58.713Z,22.10
2017-06-30T17:38:25.137Z,22.10
2017-06-30T17:40:51.700Z,22.00
2017-06-30T17:43:18.083Z,22.00
2017-06-30T17:45:45.355Z,21.90
2017-06-30T17:48:11.929Z,21.90
2017-06-30T17:50:38.311Z,21.70
2017-06-30T17:53:04.723Z,21.70
2017-06-30T17:55:31.199Z,21.60
2017-06-30T17:57:57.613Z,21.50
2017-06-30T18:00:24.003Z,21.40
2017-06-30T18:02:50.435Z,21.30
2017-06-30T18:05:16.863Z,21.30
2017-06-30T18:07:44.318Z,21.20
2017-06-30T18:10:11.483Z,21.20
2017-06-30T18:12:38.684Z,21.20
2017-06-30T18:15:05.187Z,21.10
2017-06-30T18:17:31.615Z,21.20
2017-06-30T18:19:58.150Z,21.10
2017-06-30T18:22:25.520Z,21.10
2017-06-30T18:24:52.084Z,21.10
2017-06-30T18:27:18.461Z,21.10
2017-06-30T18:29:45.655Z,21.00
2017-06-30T18:32:12.807Z,21.00
2017-06-30T18:34:40.020Z,21.00
2017-06-30T18:37:06.504Z,21.00
2017-06-30T18:39:32.918Z,20.90
2017-06-30T18:41:59.304Z,20.90
2017-06-30T18:44:25.690Z,20.80
2017-06-30T18:46:52.164Z,20.80
2017-06-30T18:49:18.575Z,20.80
2017-06-30T18:51:45.193Z,20.70
2017-06-30T18:54:11.820Z,20.60
2017-06-30T18:56:39.272Z,20.50
2017-06-30T18:59:05.970Z,20.50
2017-06-30T19:01:33.629Z,20.30
2017-06-30T19:04:00.898Z,20.30
2017-06-30T19:06:27.666Z,20.20
2017-06-30T19:08:54.522Z,20.20
2017-06-30T19:11:21.022Z,20.20
2017-06-30T19:13:47.551Z,20.10
2017-06-30T19:16:14.195Z,20.10
2017-06-30T19:18:41.458Z,20.00
2017-06-30T19:21:08.027Z,20.00
2017-06-30T19:23:34.573Z,20.00
2017-06-30T19:26:01.885Z,20.10
2017-06-30T19:28:28.393Z,20.10
2017-06-30T19:30:54.909Z,20.10
2017-06-30T19:33:21.387Z,20.10
2017-06-30T19:35:47.907Z,20.10
2017-06-30T19:38:14.417Z,20.10
2017-06-30T19:40:40.908Z,20.10
2017-06-30T19:43:07.325Z,20.00
2017-06-30T19:45:33.885Z,20.00
2017-06-30T19:48:00.355Z,19.90
2017-06-30T19:50:26.916Z,19.80
2017-06-30T19:52:53.444Z,19.80
2017-06-30T19:55:19.942Z,19.70
2017-06-30T19:57:46.486Z,19.70
2017-06-30T20:00:12.970Z,19.60
2017-06-30T20:02:41.287Z,19.40
2017-06-30T20:05:07.853Z,19.40
2017-06-30T20:07:34.490Z,19.40
2017-06-30T20:10:01.995Z,19.30
2017-06-30T20:12:28.742Z,19.30
2017-06-30T20:14:55.451Z,19.20
2017-06-30T20:17:21.995Z,19.20
2017-06-30T20:19:49.242Z,19.10
2017-06-30T20:22:15.693Z,19.10
2017-06-30T20:24:42.116Z,19.10
2017-06-30T20:27:08.713Z,19.00
2017-06-30T20:29:35.929Z,19.00
2017-06-30T20:32:03.118Z,18.90
2017-06-30T20:34:29.610Z,18.90
2017-06-30T20:36:56.044Z,18.90
2017-06-30T20:39:22.441Z,18.90
2017-06-30T20:41:48.993Z,18.90
2017-06-30T20:44:16.514Z,18.90
2017-06-30T20:46:42.955Z,18.90
2017-06-30T20:49:09.540Z,18.90
2017-06-30T20:51:37.160Z,18.90
2017-06-30T20:54:03.653Z,18.90
2017-06-30T20:56:30.815Z,18.80
2017-06-30T20:58:57.322Z,18.80
2017-06-30T21:01:23.740Z,18.80
2017-06-30T21:03:50.191Z,18.80
2017-06-30T21:06:16.605Z,18.80
2017-06-30T21:08:44.113Z,18.70
2017-06-30T21:11:10.592Z,18.70
2017-06-30T21:13:37.023Z,18.80
2017-06-30T21:16:03.384Z,18.80
2017-06-30T21:18:30.676Z,18.70
2017-06-30T21:20:57.100Z,18.70
2017-06-30T21:23:23.527Z,18.70
2017-06-30T21:25:50.713Z,18.70
2017-06-30T21:28:17.116Z,18.60
2017-06-30T21:30:43.568Z,18.70
2017-06-30T21:33:09.980Z,18.60
2017-06-30T21:35:36.377Z,18.60
2017-06-30T21:38:02.771Z,18.60
2017-06-30T21:40:29.179Z,18.60
2017-06-30T21:42:55.581Z,18.60
2017-06-30T21:45:22.987Z,18.60
2017-06-30T21:47:49.408Z,18.60
2017-06-30T21:50:15.853Z,18.60
2017-06-30T21:52:42.265Z,18.60
2017-06-30T21:55:08.715Z,18.50
2017-06-30T21:57:35.144Z,18.50
2017-06-30T22:00:01.561Z,18.50
2017-06-30T22:02:28.683Z,18.50
2017-06-30T22:04:55.102Z,18.50
2017-06-30T22:07:21.553Z,18.50
2017-06-30T22:09:48.008Z,18.40
2017-06-30T22:12:14.465Z,18.40
2017-06-30T22:14:40.888Z,18.30
2017-06-30T22:17:07.358Z,18.30
2017-06-30T22:19:33.822Z,18.30
2017-06-30T22:22:00.200Z,18.40
2017-06-30T22:24:26.596Z,18.30
2017-06-30T22:26:53.027Z,18.20
2017-06-30T22:29:19.456Z,18.20
2017-06-30T22:31:45.875Z,18.20
2017-06-30T22:34:12.293Z,18.20
2017-06-30T22:36:39.435Z,18.10
2017-06-30T22:39:06.607Z,18.10
2017-06-30T22:41:33.002Z,18.10
2017-06-30T22:43:59.450Z,18.10
2017-06-30T22:46:25.868Z,18.10
2017-06-30T22:48:52.324Z,18.10
2017-06-30T22:51:18.716Z,18.10
2017-06-30T22:53:45.131Z,18.10
2017-06-30T22:56:11.588Z,18.10
2017-06-30T22:58:38.032Z,18.00
2017-06-30T23:01:04.463Z,18.00
2017-06-30T23:03:30.910Z,18.00
2017-06-30T23:05:57.372Z,18.00
2017-06-30T23:08:23.772Z,18.00
2017-06-30T23:10:50.188Z,17.90
2017-06-30T23:13:16.551Z,17.90
2017-06-30T23:15:43.023Z,17.90
2017-06-30T23:18:09.503Z,17.90
2017-06-30T23:20:35.928Z,17.90
2017-06-30T23:23:02.324Z,17.80
2017-06-30T23:25:28.774Z,17.80
2017-06-30T23:27:56.204Z,17.80
2017-06-30T23:30:22.652Z,17.80
2017-06-30T23:32:49.119Z,17.80
2017-06-30T23:35:15.528Z,17.80
2017-06-30T23:37:41.976Z,17.70
2017-06-30T23:40:08.477Z,17.60
2017-06-30T23:42:34.919Z,17.60
2017-06-30T23:45:01.328Z,17.60
2017-06-30T23:47:27.775Z,17.50
2017-06-30T23:49:54.269Z,17.50
2017-06-30T23:52:20.721Z,17.50
2017-06-30T23:54:47.171Z,17.40
2017-06-30T23:57:13.690Z,17.40
2017-06-30T23:59:40.136Z,17.40
